createdAt,value
2022-08-11T00:03:22.462Z,50.45
2022-08-11T00:07:28.338Z,51.47
2022-08-11T00:11:36.333Z,50.50
2022-08-11T00:15:46.115Z,50.56
2022-08-11T00:20:12.584Z,51.28
2022-08-11T00:24:17.346Z,51.37
2022-08-11T00:28:31.367Z,50.18
2022-08-11T00:32:38.342Z,51.76
2022-08-11T00:36:54.543Z,51.25
2022-08-11T00:41:06.046Z,51.40
2022-08-11T00:45:15.078Z,52.02
2022-08-11T00:49:30.891Z,51.38
2022-08-11T00:53:47.299Z,51.36
2022-08-11T00:58:50.822Z,50.01
2022-08-11T01:03:33.005Z,50.15
2022-08-11T01:08:06.265Z,51.30
2022-08-11T01:12:51.814Z,50.28
2022-08-11T01:17:14.920Z,51.40
2022-08-11T01:21:49.195Z,52.05
2022-08-11T01:26:17.215Z,53.36
2022-08-11T01:31:01.673Z,51.90
2022-08-11T01:35:29.242Z,52.59
2022-08-11T01:40:06.303Z,53.24
2022-08-11T01:44:50.308Z,53.76
2022-08-11T01:50:05.974Z,54.64
2022-08-11T01:53:40.209Z,54.44
2022-08-11T01:57:51.625Z,55.13
2022-08-11T02:02:08.652Z,54.78
2022-08-11T02:06:39.204Z,54.49
2022-08-11T02:11:06.581Z,54.88
2022-08-11T02:15:22.196Z,54.25
2022-08-11T02:19:49.007Z,55.48
2022-08-11T02:24:06.766Z,55.36
2022-08-11T02:28:26.010Z,54.48
2022-08-11T02:32:52.099Z,55.66
2022-08-11T02:37:02.047Z,55.71
2022-08-11T02:41:25.965Z,54.92
2022-08-11T02:45:39.019Z,55.17
2022-08-11T02:50:06.868Z,51.86
2022-08-11T02:54:17.689Z,54.62
2022-08-11T02:58:29.882Z,54.82
2022-08-11T03:02:50.231Z,54.24
2022-08-11T03:07:02.398Z,54.97
2022-08-11T03:11:33.658Z,54.95
2022-08-11T03:16:11.127Z,54.45
2022-08-11T03:20:38.086Z,54.58
2022-08-11T03:24:54.965Z,55.04
2022-08-11T03:29:08.177Z,55.39
2022-08-11T03:33:40.211Z,55.30
2022-08-11T03:37:53.044Z,55.58
2022-08-11T03:42:10.277Z,55.70
2022-08-11T03:46:24.583Z,56.51
2022-08-11T03:50:55.149Z,54.81
2022-08-11T03:55:10.966Z,55.65
2022-08-11T03:59:40.970Z,55.15
2022-08-11T04:04:09.646Z,55.14
2022-08-11T04:08:55.456Z,54.97
2022-08-11T04:13:43.139Z,54.91
2022-08-11T04:18:32.215Z,55.42
2022-08-11T04:23:09.133Z,55.28
2022-08-11T04:27:44.523Z,55.37
2022-08-11T04:32:10.545Z,56.17
2022-08-11T04:36:56.602Z,55.72
2022-08-11T04:41:32.260Z,55.56
2022-08-11T04:45:51.128Z,56.19
2022-08-11T04:50:26.686Z,56.66
2022-08-11T04:55:06.755Z,56.27
2022-08-11T05:00:03.918Z,56.23
2022-08-11T05:04:42.769Z,56.04
2022-08-11T05:09:07.772Z,56.27
2022-08-11T05:13:39.942Z,57.22
2022-08-11T05:18:04.665Z,57.49
2022-08-11T05:22:30.317Z,57.45
2022-08-11T05:27:00.710Z,57.08
2022-08-11T05:31:27.667Z,56.84
2022-08-11T05:36:00.552Z,56.58
2022-08-11T05:40:24.307Z,56.27
2022-08-11T05:44:47.923Z,56.78
2022-08-11T05:49:12.259Z,55.67
2022-08-11T05:53:35.996Z,56.04
2022-08-11T05:57:52.078Z,55.81
2022-08-11T06:02:02.437Z,55.60
2022-08-11T06:06:11.283Z,55.29
2022-08-11T06:10:15.821Z,55.22
2022-08-11T06:14:20.216Z,55.00
2022-08-11T06:18:24.182Z,54.02
2022-08-11T06:22:29.845Z,53.64
2022-08-11T06:26:44.860Z,53.58
2022-08-11T06:30:57.741Z,52.56
2022-08-11T06:35:14.190Z,52.43
2022-08-11T06:39:28.883Z,51.97
2022-08-11T06:43:55.753Z,50.85
2022-08-11T06:48:03.601Z,49.95
2022-08-11T06:52:12.801Z,49.42
2022-08-11T07:01:29.865Z,48.34
2022-08-11T07:05:44.042Z,48.29
2022-08-11T07:10:39.698Z,46.44
2022-08-11T07:15:09.254Z,45.96
2022-08-11T07:19:33.305Z,43.22
2022-08-11T07:23:56.287Z,42.67
2022-08-11T07:28:21.422Z,42.24
2022-08-11T07:32:30.100Z,40.66
2022-08-11T07:36:35.641Z,38.66
2022-08-11T07:40:39.855Z,38.31
2022-08-11T07:44:58.098Z,37.65
2022-08-11T07:49:21.999Z,36.54
2022-08-11T07:53:26.096Z,36.48
2022-08-11T07:58:08.746Z,35.46
2022-08-11T08:02:31.005Z,35.25
2022-08-11T08:06:53.743Z,35.29
2022-08-11T08:11:16.050Z,35.02
2022-08-11T08:15:39.056Z,34.06
2022-08-11T08:19:44.896Z,33.07
2022-08-11T08:23:53.039Z,34.16
2022-08-11T08:28:02.210Z,33.06
2022-08-11T08:32:06.360Z,31.63
2022-08-11T08:36:15.847Z,31.58
2022-08-11T08:40:21.624Z,32.37
2022-08-11T08:44:44.652Z,31.46
2022-08-11T08:48:49.902Z,29.93
2022-08-11T08:53:03.774Z,31.00
2022-08-11T08:57:12.598Z,30.28
2022-08-11T09:01:18.287Z,29.22
2022-08-11T09:05:24.122Z,28.72
2022-08-11T09:09:29.583Z,28.89
2022-08-11T09:13:35.045Z,29.27
2022-08-11T09:17:41.942Z,28.99
2022-08-11T09:22:06.929Z,28.51
2022-08-11T09:26:30.286Z,28.12
2022-08-11T09:30:35.928Z,28.10
2022-08-11T09:34:41.011Z,28.26
2022-08-11T09:39:01.939Z,28.79
2022-08-11T09:43:25.798Z,28.40
2022-08-11T09:47:32.175Z,27.91
2022-08-11T09:51:36.186Z,29.16
2022-08-11T09:55:46.212Z,27.46
2022-08-11T09:59:49.803Z,27.99
2022-08-11T10:04:03.066Z,28.43
2022-08-11T10:08:08.631Z,29.03
2022-08-11T10:12:15.373Z,27.25
2022-08-11T10:16:19.368Z,27.52
2022-08-11T10:20:25.919Z,27.16
2022-08-11T10:24:46.697Z,28.22
2022-08-11T10:29:11.965Z,27.91
2022-08-11T10:33:36.847Z,27.25
2022-08-11T10:38:08.305Z,27.34
2022-08-11T10:42:47.722Z,26.77
2022-08-11T10:51:53.667Z,26.85
2022-08-11T10:56:18.204Z,26.42
2022-08-11T11:00:21.521Z,27.02
2022-08-11T11:04:28.089Z,27.37
2022-08-11T11:08:50.825Z,26.22
2022-08-11T11:13:17.529Z,27.30
2022-08-11T11:17:45.866Z,27.59
2022-08-11T11:21:53.574Z,25.90
2022-08-11T11:26:15.014Z,26.54
2022-08-11T11:30:21.234Z,25.90
2022-08-11T11:34:52.952Z,26.40
2022-08-11T11:38:59.594Z,26.44
2022-08-11T11:43:03.825Z,25.68
2022-08-11T11:47:09.510Z,26.25
2022-08-11T11:51:14.645Z,25.33
2022-08-11T11:55:18.505Z,24.52
2022-08-11T11:59:40.408Z,24.50
2022-08-11T12:03:47.404Z,25.14
2022-08-11T12:08:13.165Z,25.16
2022-08-11T12:12:34.131Z,24.60
2022-08-11T12:16:39.362Z,23.74
2022-08-11T12:20:45.682Z,24.66
2022-08-11T12:25:07.280Z,24.86
2022-08-11T12:29:13.094Z,23.97
2022-08-11T12:33:23.856Z,24.75
2022-08-11T12:37:33.597Z,25.29
2022-08-11T12:41:58.638Z,22.99
2022-08-11T12:46:07.828Z,22.92
2022-08-11T12:50:29.254Z,24.41
2022-08-11T12:54:42.248Z,23.09
2022-08-11T12:58:48.378Z,23.89
2022-08-11T13:03:11.049Z,24.32
2022-08-11T13:07:16.043Z,24.08
2022-08-11T13:11:56.380Z,23.77
2022-08-11T13:16:02.424Z,23.32
2022-08-11T13:20:09.014Z,23.77
2022-08-11T13:24:12.384Z,22.21
2022-08-11T13:28:21.888Z,22.96
2022-08-11T13:32:27.077Z,23.49
2022-08-11T13:36:30.610Z,22.05
2022-08-11T13:40:54.603Z,23.76
2022-08-11T13:45:01.747Z,22.77
2022-08-11T13:49:06.181Z,22.34
2022-08-11T13:53:10.088Z,22.23
2022-08-11T13:58:07.516Z,21.21
2022-08-11T14:02:03.591Z,22.31
2022-08-11T14:06:10.151Z,22.83
2022-08-11T14:10:17.806Z,21.75
2022-08-11T14:14:26.697Z,21.48
2022-08-11T14:18:33.751Z,21.86
2022-08-11T14:22:40.297Z,21.28
2022-08-11T14:26:44.823Z,21.29
2022-08-11T14:31:01.561Z,21.45
2022-08-11T14:35:07.709Z,21.77
2022-08-11T14:39:13.600Z,20.89
2022-08-11T14:44:12.493Z,21.45
2022-08-11T14:48:03.194Z,21.41
2022-08-11T14:52:10.921Z,22.08
2022-08-11T14:56:32.304Z,21.31
2022-08-11T15:00:36.513Z,21.91
2022-08-11T15:04:40.637Z,21.74
2022-08-11T15:08:58.250Z,21.01
2022-08-11T15:13:03.268Z,20.54
2022-08-11T15:17:10.433Z,21.76
2022-08-11T15:21:32.060Z,20.96
2022-08-11T15:25:38.022Z,20.75
2022-08-11T15:30:01.261Z,20.20
2022-08-11T15:34:24.623Z,20.53
2022-08-11T15:38:36.932Z,19.71
2022-08-11T15:43:06.557Z,21.04
2022-08-11T15:47:17.101Z,20.95
2022-08-11T15:51:25.461Z,20.51
2022-08-11T15:55:32.795Z,20.88
2022-08-11T15:59:58.597Z,21.11
2022-08-11T16:04:14.850Z,21.40
2022-08-11T16:08:23.536Z,21.19
2022-08-11T16:12:41.338Z,21.00
2022-08-11T16:16:47.644Z,21.75
2022-08-11T16:20:53.588Z,22.57
2022-08-11T16:27:01.997Z,22.18
2022-08-11T16:29:25.152Z,22.65
2022-08-11T16:33:51.235Z,23.00
2022-08-11T16:38:14.330Z,23.53
2022-08-11T16:43:08.595Z,24.37
2022-08-11T16:47:01.420Z,24.11
2022-08-11T16:51:07.695Z,24.14
2022-08-11T16:55:12.274Z,24.90
2022-08-11T16:59:38.917Z,25.23
2022-08-11T17:04:06.803Z,25.87
2022-08-11T17:08:30.280Z,25.64
2022-08-11T17:12:53.648Z,25.96
2022-08-11T17:16:58.403Z,26.51
2022-08-11T17:21:04.348Z,27.47
2022-08-11T17:25:11.836Z,27.02
2022-08-11T17:29:16.221Z,27.58
2022-08-11T17:33:38.417Z,27.90
2022-08-11T17:37:43.379Z,27.58
2022-08-11T17:42:14.502Z,28.04
2022-08-11T17:46:35.363Z,28.28
2022-08-11T17:50:40.203Z,28.92
2022-08-11T17:55:02.765Z,29.12
2022-08-11T17:59:32.437Z,29.45
2022-08-11T18:03:40.101Z,29.82
2022-08-11T18:08:03.089Z,30.08
2022-08-11T18:12:25.924Z,31.21
2022-08-11T18:16:48.757Z,31.23
2022-08-11T18:21:09.887Z,28.91
2022-08-11T18:25:34.194Z,31.42
2022-08-11T18:29:59.157Z,31.63
2022-08-11T18:34:25.052Z,32.62
2022-08-11T18:38:48.415Z,33.31
2022-08-11T18:43:12.222Z,33.75
2022-08-11T18:47:35.482Z,34.19
2022-08-11T18:52:03.049Z,34.24
2022-08-11T18:56:24.570Z,34.72
2022-08-11T19:00:47.473Z,35.63
2022-08-11T19:05:08.536Z,31.85
2022-08-11T19:09:33.305Z,35.12
2022-08-11T19:13:55.381Z,36.26
2022-08-11T19:18:17.904Z,37.75
2022-08-11T19:22:40.101Z,37.04
2022-08-11T19:27:03.205Z,36.28
2022-08-11T19:31:24.545Z,33.03
2022-08-11T19:35:46.022Z,37.54
2022-08-11T19:40:07.879Z,37.86
2022-08-11T19:44:33.218Z,36.89
2022-08-11T19:48:54.687Z,37.15
2022-08-11T19:53:16.893Z,38.55
2022-08-11T19:57:40.493Z,38.46
2022-08-11T20:02:14.314Z,37.93
2022-08-11T20:06:37.146Z,38.95
2022-08-11T20:10:59.294Z,39.79
2022-08-11T20:15:21.820Z,39.98
2022-08-11T20:19:55.406Z,38.97
2022-08-11T20:24:20.356Z,39.62
2022-08-11T20:28:41.373Z,40.65
2022-08-11T20:33:04.164Z,40.26
2022-08-11T20:37:26.641Z,40.88
2022-08-11T20:41:58.927Z,40.72
2022-08-11T20:46:22.231Z,41.06
2022-08-11T20:50:45.670Z,41.42
2022-08-11T20:55:14.816Z,41.75
2022-08-11T20:59:50.678Z,41.86
2022-08-11T21:04:17.427Z,41.71
2022-08-11T21:08:44.714Z,43.01
2022-08-11T21:13:25.131Z,42.56
2022-08-11T21:18:00.787Z,42.40
2022-08-11T21:22:32.441Z,43.52
2022-08-11T21:26:58.277Z,43.21
2022-08-11T21:31:26.405Z,43.35
2022-08-11T21:35:47.624Z,44.30
2022-08-11T21:40:14.897Z,44.75
2022-08-11T21:44:39.686Z,44.92
2022-08-11T21:49:04.131Z,43.87
2022-08-11T21:53:25.047Z,45.09
2022-08-11T21:57:48.178Z,45.43
2022-08-11T22:02:13.011Z,45.71
2022-08-11T22:06:35.329Z,40.91
2022-08-11T22:10:55.967Z,45.47
2022-08-11T22:15:17.175Z,45.50
2022-08-11T22:19:40.498Z,45.66
2022-08-11T22:24:03.908Z,46.11
2022-08-11T22:28:29.123Z,45.89
2022-08-11T22:32:50.611Z,45.65
2022-08-11T22:37:26.829Z,45.29
2022-08-11T22:41:50.682Z,45.40
2022-08-11T22:46:11.656Z,41.77
2022-08-11T22:50:34.120Z,45.72
2022-08-11T22:54:56.163Z,45.98
2022-08-11T22:59:18.946Z,46.18
2022-08-11T23:03:40.234Z,46.62
2022-08-11T23:08:01.100Z,46.96
2022-08-11T23:12:22.836Z,47.18
2022-08-11T23:16:45.477Z,46.62
2022-08-11T23:21:07.221Z,47.37
2022-08-11T23:25:28.012Z,47.41
2022-08-11T23:29:52.247Z,47.17
2022-08-11T23:35:02.431Z,47.30
2022-08-11T23:38:57.298Z,48.20
2022-08-11T23:43:19.053Z,48.15
2022-08-11T23:47:50.902Z,48.80
2022-08-11T23:52:14.475Z,48.58
2022-08-11T23:56:35.052Z,49.19
